Airport ICAO


14:34 UTC

7°C

Clear skies


An affordable passengers' Moving Map for your aircraft. Made for the iPad and the iPhone
More information here

EGKB Biggin Hill


Biggin Hill UNITED KINGDOM   VFR CAVOK


METAR EGKB 241420Z VRB03KT CAVOK 07/03 Q1011 0h14min

TAF EGKB 241353Z 2415/2423 28004KT CAVOK 0h41min





NOTAMS

OPEN